createdAt,value
2023-03-23T16:00:39.088Z,5.00
2023-03-23T16:05:41.366Z,5.10
2023-03-23T16:10:44.214Z,4.97
2023-03-23T16:15:46.959Z,4.65
2023-03-23T16:20:49.526Z,4.93
2023-03-23T16:25:51.490Z,4.95
2023-03-23T16:30:53.690Z,5.18
2023-03-23T16:35:55.494Z,5.50
2023-03-23T16:40:57.356Z,5.17
2023-03-23T16:45:59.243Z,4.90
2023-03-23T16:51:01.078Z,5.03
2023-03-23T16:56:03.449Z,5.60
2023-03-23T17:01:05.568Z,4.93
2023-03-23T17:06:07.497Z,4.90
2023-03-23T17:11:10.677Z,4.77
2023-03-23T17:16:12.519Z,4.53
2023-03-23T17:21:14.373Z,4.80
2023-03-23T17:26:16.175Z,4.97
2023-03-23T17:31:18.130Z,5.00
2023-03-23T17:36:20.105Z,5.18
2023-03-23T17:41:22.053Z,4.83
2023-03-23T17:46:24.028Z,5.10
2023-03-23T17:51:26.049Z,4.93
2023-03-23T17:56:31.050Z,4.28
2023-03-23T18:01:35.304Z,5.57
2023-03-23T18:06:37.200Z,6.05
2023-03-23T18:11:39.397Z,5.70
2023-03-23T18:16:41.401Z,6.18
2023-03-23T18:21:45.693Z,6.53
2023-03-23T18:26:48.120Z,6.30
2023-03-23T18:31:50.050Z,6.00
2023-03-23T18:36:52.038Z,7.28
2023-03-23T18:41:53.936Z,7.93
2023-03-23T18:46:55.936Z,7.68
2023-03-23T18:51:57.910Z,7.77
2023-03-23T18:57:00.397Z,7.20
2023-03-23T19:02:02.863Z,7.82
2023-03-23T19:07:04.843Z,7.43
2023-03-23T19:12:07.518Z,7.73
2023-03-23T19:22:12.366Z,7.18
2023-03-23T19:27:14.293Z,7.97
2023-03-23T19:32:16.374Z,4.97
2023-03-23T19:37:18.621Z,9.07
2023-03-23T19:42:20.513Z,7.82
2023-03-23T19:47:22.501Z,7.80
2023-03-23T19:52:28.925Z,9.00
2023-03-23T19:57:30.875Z,8.70
2023-03-23T20:02:33.073Z,8.37
2023-03-23T20:07:35.220Z,8.18
2023-03-23T20:12:37.174Z,8.20
2023-03-23T20:17:39.158Z,7.93
2023-03-23T20:22:41.068Z,7.82
2023-03-23T20:27:43.172Z,7.93
2023-03-23T20:32:45.129Z,7.90
2023-03-23T20:37:47.452Z,8.02
2023-03-23T20:42:49.470Z,8.05
2023-03-23T20:47:51.328Z,7.50
2023-03-23T20:52:53.295Z,8.47
2023-03-23T20:57:55.549Z,7.97
2023-03-23T21:02:57.521Z,8.10
2023-03-23T21:07:59.448Z,7.97
2023-03-23T21:13:01.317Z,7.80
2023-03-23T21:18:03.432Z,8.27
2023-03-23T21:23:05.553Z,8.38
2023-03-23T21:28:07.514Z,7.40
2023-03-23T21:33:09.379Z,8.17
2023-03-23T21:38:11.501Z,7.97
2023-03-23T21:43:13.483Z,7.95
2023-03-23T21:48:15.316Z,8.73
2023-03-23T21:53:17.195Z,8.40
2023-03-23T21:58:20.012Z,8.80
2023-03-23T22:03:22.823Z,9.10
2023-03-23T22:08:25.867Z,8.52
2023-03-23T22:13:28.996Z,9.27
2023-03-23T22:18:30.993Z,8.85
2023-03-23T22:23:33.483Z,9.00
2023-03-23T22:28:35.455Z,8.48
2023-03-23T22:33:37.496Z,9.30
2023-03-23T22:38:41.392Z,9.73
2023-03-23T22:43:43.459Z,10.10
2023-03-23T22:48:45.670Z,10.17
2023-03-23T22:53:47.723Z,9.10
2023-03-23T22:58:49.704Z,10.00
2023-03-23T23:03:51.700Z,9.73
2023-03-23T23:08:53.663Z,10.27
2023-03-23T23:13:55.699Z,10.70
2023-03-23T23:18:57.661Z,10.57
2023-03-23T23:23:59.567Z,11.00
2023-03-23T23:29:01.584Z,7.63
2023-03-23T23:34:03.846Z,12.00
2023-03-23T23:39:05.848Z,11.18
2023-03-23T23:44:07.878Z,11.43
2023-03-23T23:49:09.799Z,11.80
2023-03-23T23:54:11.720Z,13.05
2023-03-23T23:59:13.551Z,12.63
